Maryland AWOS List, Phone Numbers

USA |  
| Search AWOS

Rocky Mountain States: Montana | Wyoming | Colorado | New Mexico

Complete weather reports: Maryland

Legend: KFNL = METAR available Follow your local AWOS on AV Mobile = METAR available on AV Mobile
Station Maryland Location Frequency Phone
KAPGFAA ID APG, KAPG 200050Z 30005KT 7SM SKC 02/M04 A3021 Follow KAPG on AV Mobile Phillips Army Air Field / Aberdeen
K61WICAO ID K61W Annapolis Coast Guard Station
KNAKICAO ID KNAK, KNAK 212354Z AUTO 00000KT 7SM CLR 01/M03 A3034 RMK AO2 SLP276 T00111028 10050 20011 51018 $ Follow KNAK on AV Mobile ANNAPOLIS US NAVAL ACADEMY
KLWXICAO ID KLWX Baltimore / DC Nexrad
KDMHICAO ID KDMH, KDMH 212354Z AUTO 03/M04 A3034 RMK AO1 SLP274 T00281044 10061 20028 53025 Follow KDMH on AV Mobile BALTIMORE DOWNTOWN
KMTNFAA ID MTN, AWOS-3, KMTN 212345Z 00000KT 10SM SKC 01/M03 A3038 Follow KMTN on AV Mobile Baltimore / Martin 410-682-8848
KBWIFAA ID BWI, ASOS, KBWI 212354Z 07004KT 9SM SCT250 02/M04 A3034 Follow KBWI on AV Mobile BALTIMORE-WASHINGTON INTERNATIONAL 410-691-1278
4MDFAA ID 4MD, Belfort PIER 7
KCGEFAA ID CGE, AWOS-3, KCGE 220019Z AUTO 00000KT 10SM CLR 00/M03 A3033 RMK AO1 Follow KCGE on AV Mobile CAMBRIDGE 120.675 410-228-7559
KADWFAA ID ADW, KADW 212355Z 00000KT 10SM SCT070 00/M05 A3031 RMK SLP268 AO2A T10021047 21006 51012 Follow KADW on AV Mobile Camp Springs / Andrews Air Force Base
W32FAA ID W32, Belfort WASHINGTON EXECUTIVE/HYDE FIELD
KCGSFAA ID CGS, AWOS-3, KCGS 220015Z AUTO 00000KT 10SM CLR 00/M03 A3033 RMK AO1 Follow KCGS on AV Mobile COLLEGE PARK 121.225 301-864-5497
K66WICAO ID K66W Cove Point Coast Guard Light Station
KCBEFAA ID CBE, AWOS-3, KCBE 220019Z AUTO 00000KT 10SM CLR 01/M04 A3031 Follow KCBE on AV Mobile Cumberland, Greater Cumberland Regional Airport 128.625 304-738-0451
KESNFAA ID ESN, AWOS-3, KESN 212250Z 00000KT 10SM SKC 02/M03 A3036 Follow KESN on AV Mobile Easton / Newman Field 124.475 410-822-2817
KFMEFAA ID FME, AWOS-3, KFME 220018Z AUTO 04003KT 10SM CLR M02/M05 A3034 RMK AO1 Follow KFME on AV Mobile Fort Meade / Tipton 123.925
KJWXICAO ID KJWX Fort Ritchie
KFDKFAA ID FDK, AWOS-3, KFDK 212350Z 00000KT 10SM SKC M01/M04 A3036 Follow KFDK on AV Mobile Frederick, Frederick Municipal Airport 124.875 301-600-1457
KGAIFAA ID GAI, AWOS-3, KGAI 220015Z 00000KT 10SM CLR M02/M06 A3034 RMK AO1 Follow KGAI on AV Mobile GAITHERSBURG 128.275 301-977-2971
KHGRFAA ID HGR, ASOS, KHGR 212353Z AUTO 07006KT 10SM CLR M01/M07 A3029 RMK AO2 SLP276 T10061067 10039 21006 51010 Follow KHGR on AV Mobile HAGERSTOWN REGIONAL AIRPORT 126.375 301-745-3497
K2W6FAA ID 2W6, AWOS-3, K2W6 220019Z AUTO 00000KT 10SM CLR M01/M03 A3034 RMK AO1 Follow K2W6 on AV Mobile LEONARDTOWN 119.575 301-373-6514
K2G4FAA ID 2G4, AWOS-3, K2G4 220020Z AUTO 13011KT 10SM CLR M02/ A3014 RMK AO1 Follow K2G4 on AV Mobile OAKLAND 120.125 301-746-8443
KW30ICAO ID KW30 Ocean City
KN80ICAO ID KN80 Ocean City, Ocean City Municipal Airport
KOXBFAA ID OXB, ASOS, KOXB 212353Z AUTO 00000KT 4SM BR CLR M03/M04 A3033 RMK AO2 SLP270 T10331039 10061 21033 50014 TSNO Follow KOXB on AV Mobile OCEAN CITY MUNICIPAL AIRPORT 119.025 410-213-1530
KNHKFAA ID NHK, KNHK 212352Z AUTO 00000KT 9SM CLR M02/M05 A3033 RMK AO2 SLP270 T10221050 10061 21022 51016 Follow KNHK on AV Mobile NAS PATUXENT RIVER MD
KSBYFAA ID SBY, ASOS, KSBY 212354Z 00000KT 6SM HZ CLR M01/M04 A3033 Follow KSBY on AV Mobile SALISBURY-WICOMICO CTY REG 118.325 410-341-0868
KNUIFAA ID NUI, KNUI 212353Z AUTO 00000KT 10SM CLR M01/M04 A3032 RMK AO2 SLP268 T10111044 10061 21011 51014 Follow KNUI on AV Mobile KNUI WEBSTER FIELD ANNEX
KW29FAA ID W29, AWOS-3, KW29 220019Z AUTO 04004KT 10SM 01/M04 A3033 RMK AO1 Follow KW29 on AV Mobile STEVENSVILLE 120.575 410-643-8795
K67WICAO ID K67W Stillpond Coast Guard Station
K65WICAO ID K65W Thomas Point Coast Guard Station
KDMWFAA ID DMW, AWOS-3, KDMW 220020Z AUTO 04005KT 10SM SCT085 M01/M06 A3030 RMK AO2 Follow KDMW on AV Mobile WESTMINSTER 121.25 410-876-1281

Click on the AV Mobile icon AV Mobile icon by any station to follow that AWOS feed on AirportView.net Mobile.

Garmin aera 796 $1999 at Avionics Specialists LLC
Bose A20 Aviation Headsets $995 at Avionics Specialists LLC